Renaissance, California
Current Conditions -  °F | °C
As of 2:20 AM on Sunday 25 Jan 2015 (Local Time) from KGOO Reporting Station
Clear Clear  
Wind Chill: 63°   Ceiling: Unl
Heat Index: 63°   Visibility: 10mi
Dew Point: 28°   Wind: 3mph
Humidity: 27%   Direction: 60°ENE
Pressure: 30.22"   Gusts: NA
Location:  39.3135°N, 121.257°W
Report Text: KGOO 251020Z AUTO 06003KT 10SM CLR 17/M02 A3022 RMK AO1
Loading
Personal Weather Stations






























Interactive Weather Map New forecast layout! Learn more

10-Day Weather Forecast

Advertisements
Track Severe Weather on mobile